createdAt,value
2023-03-26T00:00:36.188Z,8.60
2023-03-26T00:01:36.200Z,8.62
2023-03-26T00:02:36.232Z,8.63
2023-03-26T00:03:36.092Z,8.66
2023-03-26T00:04:36.113Z,8.66
2023-03-26T00:05:36.149Z,8.68
2023-03-26T00:06:36.101Z,8.66
2023-03-26T00:07:36.071Z,8.63
2023-03-26T00:08:36.068Z,8.63
2023-03-26T00:09:36.021Z,8.63
2023-03-26T00:10:36.044Z,8.62
2023-03-26T00:11:35.993Z,8.62
2023-03-26T00:12:36.036Z,8.63
2023-03-26T00:13:36.002Z,8.65
2023-03-26T00:14:35.988Z,8.66
2023-03-26T00:15:35.984Z,8.69
2023-03-26T00:16:36.025Z,8.68
2023-03-26T00:17:35.987Z,8.72
2023-03-26T00:18:35.954Z,8.72
2023-03-26T00:19:35.918Z,8.72
2023-03-26T00:20:35.928Z,8.73
2023-03-26T00:21:35.909Z,8.75
2023-03-26T00:22:35.909Z,8.76
2023-03-26T00:23:35.885Z,8.78
2023-03-26T00:24:35.878Z,8.79
2023-03-26T00:25:36.810Z,8.78
2023-03-26T00:26:35.878Z,8.78
2023-03-26T00:27:35.889Z,8.79
2023-03-26T00:28:35.842Z,8.75
2023-03-26T00:29:35.791Z,8.73
2023-03-26T00:30:36.879Z,8.71
2023-03-26T00:31:35.779Z,8.72
2023-03-26T00:32:35.798Z,8.73
2023-03-26T00:33:35.777Z,8.72
2023-03-26T00:34:35.791Z,8.72
2023-03-26T00:35:35.736Z,8.75
2023-03-26T00:36:35.782Z,8.76
2023-03-26T00:37:35.712Z,8.79
2023-03-26T00:38:35.736Z,8.79
2023-03-26T00:39:35.722Z,8.83
2023-03-26T00:40:35.726Z,8.84
2023-03-26T00:41:35.694Z,8.87
2023-03-26T00:42:35.697Z,8.90
2023-03-26T00:43:35.649Z,8.91
2023-03-26T00:44:35.678Z,8.93
2023-03-26T00:45:35.644Z,8.96
2023-03-26T00:46:35.685Z,8.97
2023-03-26T00:47:35.634Z,8.99
2023-03-26T00:48:44.560Z,8.99
2023-03-26T00:49:36.579Z,9.01
2023-03-26T00:50:35.613Z,9.02
2023-03-26T00:51:35.618Z,9.02
2023-03-26T00:52:36.522Z,9.01
2023-03-26T00:53:35.544Z,9.02
2023-03-26T00:54:35.566Z,8.97
2023-03-26T00:55:35.528Z,8.99
2023-03-26T00:56:35.561Z,8.99
2023-03-26T00:57:36.397Z,8.99
2023-03-26T00:58:35.511Z,8.96
2023-03-26T00:59:35.486Z,8.97
2023-03-26T01:00:44.668Z,8.97
2023-03-26T01:01:35.493Z,8.97
2023-03-26T01:02:35.539Z,8.97
2023-03-26T01:03:35.592Z,8.97
2023-03-26T01:04:35.630Z,8.97
2023-03-26T01:05:35.402Z,8.96
2023-03-26T01:06:35.430Z,8.94
2023-03-26T01:07:35.400Z,8.93
2023-03-26T01:08:35.418Z,8.93
2023-03-26T01:09:35.388Z,8.90
2023-03-26T01:10:35.400Z,8.88
2023-03-26T01:11:35.358Z,8.93
2023-03-26T01:12:35.383Z,8.91
2023-03-26T01:13:35.337Z,8.90
2023-03-26T01:14:35.337Z,8.88
2023-03-26T01:15:35.342Z,8.91
2023-03-26T01:16:35.325Z,8.91
2023-03-26T01:17:35.312Z,8.87
2023-03-26T01:18:35.303Z,8.87
2023-03-26T01:19:35.285Z,8.87
2023-03-26T01:20:35.259Z,8.87
2023-03-26T01:21:35.239Z,8.83
2023-03-26T01:22:35.269Z,8.83
2023-03-26T01:23:35.198Z,8.86
2023-03-26T01:24:35.257Z,8.87
2023-03-26T01:25:35.190Z,8.83
2023-03-26T01:26:35.200Z,8.81
2023-03-26T01:27:35.179Z,8.81
2023-03-26T01:28:35.183Z,8.79
2023-03-26T01:29:35.163Z,8.79
2023-03-26T01:30:35.189Z,8.81
2023-03-26T01:31:35.185Z,8.83
2023-03-26T01:32:35.204Z,8.84
2023-03-26T01:33:35.232Z,8.86
2023-03-26T01:34:35.156Z,8.86
2023-03-26T01:35:35.156Z,8.87
2023-03-26T01:36:35.114Z,8.86
2023-03-26T01:37:36.041Z,8.88
2023-03-26T01:38:35.073Z,8.90
2023-03-26T01:39:35.981Z,8.90
2023-03-26T01:40:35.025Z,8.90
2023-03-26T01:41:34.996Z,8.93
2023-03-26T01:42:35.051Z,8.94
2023-03-26T01:43:35.063Z,8.93
2023-03-26T01:44:34.998Z,8.97
2023-03-26T01:45:35.001Z,8.96
2023-03-26T01:46:35.035Z,8.97
2023-03-26T01:47:35.767Z,8.97
2023-03-26T01:48:34.972Z,9.01
2023-03-26T01:49:34.939Z,8.99
2023-03-26T01:50:35.732Z,8.99
2023-03-26T01:51:35.696Z,9.01
2023-03-26T01:52:34.942Z,9.02
2023-03-26T01:53:35.690Z,9.02
2023-03-26T01:54:35.707Z,9.02
2023-03-26T01:55:35.761Z,8.99
2023-03-26T01:56:35.864Z,9.02
2023-03-26T01:57:35.705Z,9.02
2023-03-26T01:58:36.311Z,9.02
2023-03-26T01:59:36.256Z,9.02
2023-03-26T02:00:34.839Z,9.01
2023-03-26T02:01:35.148Z,9.01
2023-03-26T02:02:35.927Z,8.97
2023-03-26T02:03:34.912Z,8.97
2023-03-26T02:04:34.877Z,8.97
2023-03-26T02:05:34.746Z,8.97
2023-03-26T02:06:34.756Z,8.99
2023-03-26T02:07:34.721Z,8.96
2023-03-26T02:08:34.734Z,8.96
2023-03-26T02:09:34.711Z,8.96
2023-03-26T02:10:34.784Z,8.96
2023-03-26T02:11:35.871Z,8.96
2023-03-26T02:12:34.688Z,8.97
2023-03-26T02:13:34.973Z,8.94
2023-03-26T02:14:34.667Z,8.96
2023-03-26T02:15:34.612Z,8.97
2023-03-26T02:16:34.711Z,8.97
2023-03-26T02:17:34.616Z,8.97
2023-03-26T02:18:34.633Z,8.99
2023-03-26T02:19:34.581Z,9.01
2023-03-26T02:20:34.590Z,9.02
2023-03-26T02:21:34.805Z,9.01
2023-03-26T02:22:34.574Z,9.01
2023-03-26T02:23:34.535Z,8.99
2023-03-26T02:24:35.521Z,8.99
2023-03-26T02:25:35.462Z,9.01
2023-03-26T02:26:36.486Z,9.01
2023-03-26T02:27:34.511Z,8.97
2023-03-26T02:28:34.496Z,8.97
2023-03-26T02:29:34.460Z,8.96
2023-03-26T02:30:34.499Z,8.94
2023-03-26T02:31:34.462Z,8.94
2023-03-26T02:32:34.526Z,8.94
2023-03-26T02:33:34.415Z,8.90
2023-03-26T02:34:34.437Z,8.91
2023-03-26T02:35:34.509Z,8.90
2023-03-26T02:36:34.461Z,8.87
2023-03-26T02:37:34.379Z,8.84
2023-03-26T02:38:34.368Z,8.83
2023-03-26T02:39:34.365Z,8.84
2023-03-26T02:40:34.381Z,8.83
2023-03-26T02:41:34.355Z,8.83
2023-03-26T02:42:34.367Z,8.81
2023-03-26T02:43:34.317Z,8.81
2023-03-26T02:44:34.302Z,8.81
2023-03-26T02:45:34.368Z,8.83
2023-03-26T02:46:34.300Z,8.81
2023-03-26T02:47:34.331Z,8.79
2023-03-26T02:48:34.272Z,8.78
2023-03-26T02:49:34.228Z,8.78
2023-03-26T02:50:34.234Z,8.78
2023-03-26T02:51:34.236Z,8.75
2023-03-26T02:52:34.223Z,8.75
2023-03-26T02:53:34.184Z,8.75
2023-03-26T02:54:34.785Z,8.73
2023-03-26T02:55:34.180Z,8.72
2023-03-26T02:56:34.230Z,8.71
2023-03-26T02:57:34.140Z,8.71
2023-03-26T02:58:34.177Z,8.69
2023-03-26T02:59:34.117Z,8.69
2023-03-26T03:00:34.151Z,8.68
2023-03-26T03:01:35.384Z,8.66
2023-03-26T03:02:34.207Z,8.65
2023-03-26T03:03:34.112Z,8.65
2023-03-26T03:04:34.085Z,8.63
2023-03-26T03:05:34.084Z,8.63
2023-03-26T03:06:34.050Z,8.60
2023-03-26T03:07:34.096Z,8.60
2023-03-26T03:08:34.074Z,8.62
2023-03-26T03:09:34.034Z,8.57
2023-03-26T03:10:34.023Z,8.57
2023-03-26T03:11:33.997Z,8.57
2023-03-26T03:12:34.021Z,8.55
2023-03-26T03:13:33.983Z,8.54
2023-03-26T03:14:33.973Z,8.54
2023-03-26T03:15:33.955Z,8.51
2023-03-26T03:16:33.989Z,8.51
2023-03-26T03:17:33.980Z,8.53
2023-03-26T03:18:33.940Z,8.54
2023-03-26T03:19:33.899Z,8.51
2023-03-26T03:20:33.892Z,8.51
2023-03-26T03:21:33.873Z,8.53
2023-03-26T03:22:33.880Z,8.53
2023-03-26T03:23:33.840Z,8.51
2023-03-26T03:24:33.870Z,8.51
2023-03-26T03:25:33.847Z,8.53
2023-03-26T03:26:33.862Z,8.53
2023-03-26T03:27:34.796Z,8.54
2023-03-26T03:28:33.860Z,8.54
2023-03-26T03:29:33.780Z,8.54
2023-03-26T03:30:33.816Z,8.54
2023-03-26T03:31:33.752Z,8.53
2023-03-26T03:32:33.839Z,8.53
2023-03-26T03:33:33.734Z,8.53
2023-03-26T03:34:33.760Z,8.50
2023-03-26T03:35:33.816Z,8.50
2023-03-26T03:36:33.724Z,8.48
2023-03-26T03:37:33.697Z,8.47
2023-03-26T03:38:33.704Z,8.47
2023-03-26T03:39:33.671Z,8.47
2023-03-26T03:40:33.710Z,8.48
2023-03-26T03:41:33.645Z,8.45
2023-03-26T03:42:33.668Z,8.45
2023-03-26T03:43:33.629Z,8.47
2023-03-26T03:44:33.643Z,8.47
2023-03-26T03:45:33.645Z,8.47
2023-03-26T03:46:33.768Z,8.44
2023-03-26T03:47:33.668Z,8.44
2023-03-26T03:48:33.715Z,8.44
2023-03-26T03:49:33.571Z,8.44
2023-03-26T03:50:35.613Z,8.45
2023-03-26T03:51:33.619Z,8.45
2023-03-26T03:52:33.529Z,8.47
2023-03-26T03:53:33.597Z,8.42
2023-03-26T03:54:33.511Z,8.39
2023-03-26T03:55:33.566Z,8.36
2023-03-26T03:56:33.650Z,8.35
2023-03-26T03:57:33.515Z,8.35
2023-03-26T03:58:33.464Z,8.36
2023-03-26T03:59:33.470Z,8.36
2023-03-26T04:00:33.473Z,8.33
2023-03-26T04:01:33.452Z,8.33
2023-03-26T04:02:33.477Z,8.36
2023-03-26T04:03:34.267Z,8.36
2023-03-26T04:04:33.406Z,8.35
2023-03-26T04:05:33.444Z,8.36
2023-03-26T04:06:33.473Z,8.35
2023-03-26T04:07:33.418Z,8.35
2023-03-26T04:08:33.328Z,8.33
2023-03-26T04:09:33.348Z,8.32
2023-03-26T04:10:33.317Z,8.32
2023-03-26T04:11:34.305Z,8.33
2023-03-26T04:12:33.308Z,8.33
2023-03-26T04:13:33.381Z,8.33
2023-03-26T04:14:33.277Z,8.32
2023-03-26T04:15:33.290Z,8.32
2023-03-26T04:16:33.270Z,8.32
2023-03-26T04:17:33.394Z,8.35
2023-03-26T04:18:33.297Z,8.35
2023-03-26T04:19:33.227Z,8.36
2023-03-26T04:20:33.228Z,8.37
2023-03-26T04:21:33.206Z,8.37
2023-03-26T04:22:33.225Z,8.40
2023-03-26T04:23:33.183Z,8.40
2023-03-26T04:24:33.185Z,8.42
2023-03-26T04:25:33.197Z,8.42
2023-03-26T04:26:33.129Z,8.45
2023-03-26T04:27:33.161Z,8.47
2023-03-26T04:28:33.111Z,8.44
2023-03-26T04:29:33.123Z,8.44
2023-03-26T04:30:33.099Z,8.44
2023-03-26T04:31:33.177Z,8.44
2023-03-26T04:32:33.087Z,8.42
2023-03-26T04:33:33.122Z,8.44
2023-03-26T04:34:33.038Z,8.42
2023-03-26T04:35:33.105Z,8.42
2023-03-26T04:36:33.040Z,8.42
2023-03-26T04:37:33.040Z,8.42
2023-03-26T04:38:32.989Z,8.42
2023-03-26T04:39:33.002Z,8.44
2023-03-26T04:40:33.003Z,8.44
2023-03-26T04:41:32.981Z,8.45
2023-03-26T04:42:32.955Z,8.45
2023-03-26T04:43:32.973Z,8.47
2023-03-26T04:44:32.975Z,8.47
2023-03-26T04:45:32.969Z,8.48
2023-03-26T04:46:32.966Z,8.48
2023-03-26T04:47:32.928Z,8.50
2023-03-26T04:48:32.884Z,8.51
2023-03-26T04:49:32.932Z,8.51
2023-03-26T04:50:32.865Z,8.54
2023-03-26T04:51:32.896Z,8.54
2023-03-26T04:52:32.844Z,8.55
2023-03-26T04:53:32.877Z,8.55
2023-03-26T04:54:32.829Z,8.58
2023-03-26T04:55:32.840Z,8.60
2023-03-26T04:56:32.835Z,8.60
2023-03-26T04:57:32.855Z,8.60
2023-03-26T04:58:32.921Z,8.62
2023-03-26T04:59:32.799Z,8.60
2023-03-26T05:00:32.769Z,8.62
2023-03-26T05:01:32.767Z,8.62
2023-03-26T05:02:32.846Z,8.62
2023-03-26T05:03:32.779Z,8.63
2023-03-26T05:04:32.737Z,8.63
2023-03-26T05:05:32.717Z,8.62
2023-03-26T05:06:32.801Z,8.63
2023-03-26T05:07:32.686Z,8.63
2023-03-26T05:08:32.673Z,8.63
2023-03-26T05:09:32.708Z,8.65
2023-03-26T05:10:32.657Z,8.65
2023-03-26T05:11:32.663Z,8.65
2023-03-26T05:12:32.618Z,8.66
2023-03-26T05:13:32.623Z,8.68
2023-03-26T05:14:32.599Z,8.69
2023-03-26T05:15:32.639Z,8.69
2023-03-26T05:16:32.604Z,8.71
2023-03-26T05:17:32.591Z,8.68
2023-03-26T05:18:32.554Z,8.69
2023-03-26T05:19:32.590Z,8.68
2023-03-26T05:20:32.544Z,8.71
2023-03-26T05:21:32.549Z,8.69
2023-03-26T05:22:32.501Z,8.69
2023-03-26T05:23:32.521Z,8.72
2023-03-26T05:24:32.494Z,8.75
2023-03-26T05:25:32.535Z,8.75
2023-03-26T05:26:32.445Z,8.75
2023-03-26T05:27:32.496Z,8.75
2023-03-26T05:28:32.434Z,8.76
2023-03-26T05:29:32.462Z,8.78
2023-03-26T05:30:32.545Z,8.78
2023-03-26T05:31:32.419Z,8.78
2023-03-26T05:32:32.465Z,8.78
2023-03-26T05:33:32.677Z,8.79
2023-03-26T05:34:32.381Z,8.78
2023-03-26T05:35:32.425Z,8.79
2023-03-26T05:36:32.386Z,8.79
2023-03-26T05:37:32.402Z,8.83
2023-03-26T05:38:32.312Z,8.83
2023-03-26T05:39:32.407Z,8.84
2023-03-26T05:40:32.410Z,8.86
2023-03-26T05:41:32.305Z,8.84
2023-03-26T05:42:32.276Z,8.84
2023-03-26T05:43:32.441Z,8.86
2023-03-26T05:44:32.253Z,8.87
2023-03-26T05:45:32.293Z,8.88
2023-03-26T05:46:32.291Z,8.91
2023-03-26T05:47:32.341Z,8.91
2023-03-26T05:48:32.221Z,8.94
2023-03-26T05:49:32.245Z,8.96
2023-03-26T05:50:32.200Z,8.94
2023-03-26T05:51:32.239Z,8.96
2023-03-26T05:52:32.217Z,8.96
2023-03-26T05:53:32.191Z,8.96
2023-03-26T05:54:32.138Z,8.97
2023-03-26T05:55:32.166Z,8.96
2023-03-26T05:56:32.214Z,8.96
2023-03-26T05:57:32.152Z,8.96
2023-03-26T05:58:32.098Z,8.97
2023-03-26T05:59:32.147Z,8.96
2023-03-26T06:00:32.090Z,8.94
2023-03-26T06:01:32.099Z,8.94
2023-03-26T06:02:32.075Z,8.91
2023-03-26T06:03:32.195Z,8.91
2023-03-26T06:04:32.370Z,8.94
2023-03-26T06:05:32.061Z,8.93
2023-03-26T06:06:33.260Z,8.91
2023-03-26T06:07:32.029Z,8.91
2023-03-26T06:08:31.987Z,8.93
2023-03-26T06:09:32.027Z,8.93
2023-03-26T06:10:31.953Z,8.96
2023-03-26T06:11:32.130Z,8.96
2023-03-26T06:12:32.004Z,8.97
2023-03-26T06:13:31.946Z,8.99
2023-03-26T06:14:31.940Z,8.99
2023-03-26T06:15:31.967Z,9.01
2023-03-26T06:16:31.957Z,9.04
2023-03-26T06:17:31.927Z,9.02
2023-03-26T06:18:31.910Z,9.05
2023-03-26T06:19:31.913Z,9.04
2023-03-26T06:20:31.851Z,9.05
2023-03-26T06:21:31.851Z,9.06
2023-03-26T06:22:31.831Z,9.05
2023-03-26T06:23:31.860Z,9.10
2023-03-26T06:24:31.815Z,9.10
2023-03-26T06:25:31.819Z,9.12
2023-03-26T06:26:31.798Z,9.10
2023-03-26T06:27:31.795Z,9.15
2023-03-26T06:28:31.802Z,9.16
2023-03-26T06:29:31.821Z,9.16
2023-03-26T06:30:31.736Z,9.20
2023-03-26T06:31:31.790Z,9.20
2023-03-26T06:32:31.777Z,9.23
2023-03-26T06:33:31.723Z,9.24
2023-03-26T06:34:31.723Z,9.25
2023-03-26T06:35:31.712Z,9.25
2023-03-26T06:36:31.673Z,9.27
2023-03-26T06:37:31.693Z,9.28
2023-03-26T06:38:31.658Z,9.31
2023-03-26T06:39:31.673Z,9.32
2023-03-26T06:40:31.645Z,9.35
2023-03-26T06:41:31.664Z,9.39
2023-03-26T06:43:08.225Z,9.39
2023-03-26T06:43:32.616Z,9.39
2023-03-26T06:44:31.612Z,9.40
2023-03-26T06:45:31.606Z,9.40
2023-03-26T06:46:31.589Z,9.42
2023-03-26T06:47:31.616Z,9.43
2023-03-26T06:48:31.530Z,9.46
2023-03-26T06:49:31.540Z,9.48
2023-03-26T06:50:31.527Z,9.49
2023-03-26T06:51:31.550Z,9.52
2023-03-26T06:52:31.524Z,9.57
2023-03-26T06:53:32.436Z,9.58
2023-03-26T06:54:31.526Z,9.60
2023-03-26T06:55:31.480Z,9.63
2023-03-26T06:56:31.475Z,9.66
2023-03-26T06:57:31.521Z,9.68
2023-03-26T06:58:31.435Z,9.68
2023-03-26T06:59:31.439Z,9.68
2023-03-26T07:00:32.358Z,9.71
2023-03-26T07:01:32.397Z,9.75
2023-03-26T07:02:31.512Z,9.78
2023-03-26T07:03:31.505Z,9.82
2023-03-26T07:04:32.320Z,9.85
2023-03-26T07:05:31.368Z,9.91
2023-03-26T07:06:31.342Z,9.94
2023-03-26T07:07:31.371Z,9.96
2023-03-26T07:08:31.334Z,9.97
2023-03-26T07:09:31.322Z,10.00
2023-03-26T07:10:31.328Z,10.03
2023-03-26T07:11:31.382Z,10.04
2023-03-26T07:12:31.279Z,10.06
2023-03-26T07:13:31.307Z,10.09
2023-03-26T07:14:31.255Z,10.09
2023-03-26T07:15:31.257Z,10.09
2023-03-26T07:16:31.302Z,10.10
2023-03-26T07:17:31.244Z,10.10
2023-03-26T07:18:31.211Z,10.12
2023-03-26T07:19:31.349Z,10.12
2023-03-26T07:20:31.213Z,10.15
2023-03-26T07:21:31.179Z,10.12
2023-03-26T07:22:31.143Z,10.12
2023-03-26T07:23:31.158Z,10.12
2023-03-26T07:24:31.132Z,10.09
2023-03-26T07:25:31.156Z,10.12
2023-03-26T07:26:31.126Z,10.12
2023-03-26T07:27:31.182Z,10.10
2023-03-26T07:28:31.088Z,10.14
2023-03-26T07:29:31.105Z,10.12
2023-03-26T07:30:31.108Z,10.14
2023-03-26T07:31:31.126Z,10.14
2023-03-26T07:32:31.090Z,10.14
2023-03-26T07:33:31.072Z,10.12
2023-03-26T07:34:31.059Z,10.14
2023-03-26T07:35:31.049Z,10.14
2023-03-26T07:36:30.982Z,10.17
2023-03-26T07:37:31.059Z,10.17
2023-03-26T07:38:30.961Z,10.17
2023-03-26T07:39:30.990Z,10.19
2023-03-26T07:40:30.980Z,10.18
2023-03-26T07:41:30.967Z,10.19
2023-03-26T07:42:30.943Z,10.19
2023-03-26T07:43:30.995Z,10.22
2023-03-26T07:44:30.912Z,10.28
2023-03-26T07:45:30.955Z,10.30
2023-03-26T07:46:30.919Z,10.32
2023-03-26T07:47:31.000Z,10.36
2023-03-26T07:48:30.871Z,10.36
2023-03-26T07:49:30.913Z,10.39
2023-03-26T07:50:31.003Z,10.37
2023-03-26T07:51:30.880Z,10.39
2023-03-26T07:52:30.820Z,10.42
2023-03-26T07:53:30.849Z,10.42
2023-03-26T07:54:31.517Z,10.40
2023-03-26T07:55:30.806Z,10.42
2023-03-26T07:56:30.921Z,10.46
2023-03-26T07:57:30.884Z,10.47
2023-03-26T07:58:30.751Z,10.51
2023-03-26T07:59:30.839Z,10.55
2023-03-26T08:00:30.884Z,10.58
2023-03-26T08:01:30.757Z,10.60
2023-03-26T08:02:30.722Z,10.65
2023-03-26T08:03:30.878Z,10.70
2023-03-26T08:04:30.788Z,10.71
2023-03-26T08:05:30.742Z,10.77
2023-03-26T08:06:30.704Z,10.80
2023-03-26T08:07:30.809Z,10.81
2023-03-26T08:08:30.820Z,10.80
2023-03-26T08:09:30.689Z,10.83
2023-03-26T08:10:30.628Z,10.83
2023-03-26T08:11:30.629Z,10.81
2023-03-26T08:12:30.657Z,10.81
2023-03-26T08:13:30.637Z,10.83
2023-03-26T08:14:30.578Z,10.86
2023-03-26T08:15:30.571Z,10.83
2023-03-26T08:16:30.586Z,10.84
2023-03-26T08:17:31.391Z,10.84
2023-03-26T08:18:30.565Z,10.88
2023-03-26T08:19:31.247Z,10.86
2023-03-26T08:20:30.519Z,10.88
2023-03-26T08:21:30.477Z,10.92
2023-03-26T08:22:30.492Z,10.95
2023-03-26T08:23:30.485Z,10.92
2023-03-26T08:24:30.487Z,10.96
2023-03-26T08:25:30.436Z,10.99
2023-03-26T08:26:30.455Z,11.01
2023-03-26T08:27:30.473Z,11.07
2023-03-26T08:28:30.534Z,11.02
2023-03-26T08:29:30.416Z,11.07
2023-03-26T08:30:30.416Z,11.09
2023-03-26T08:31:30.431Z,11.10
2023-03-26T08:32:30.432Z,11.10
2023-03-26T08:33:30.359Z,11.10
2023-03-26T08:34:30.415Z,11.14
2023-03-26T08:35:30.383Z,11.17
2023-03-26T08:36:30.329Z,11.21
2023-03-26T08:37:30.290Z,11.25
2023-03-26T08:38:30.393Z,11.27
2023-03-26T08:39:30.348Z,11.28
2023-03-26T08:40:30.352Z,11.32
2023-03-26T08:41:30.277Z,11.29
2023-03-26T08:42:30.304Z,11.27
2023-03-26T08:43:30.318Z,11.24
2023-03-26T08:44:30.265Z,11.21
2023-03-26T08:45:30.220Z,11.21
2023-03-26T08:46:30.281Z,11.25
2023-03-26T08:47:30.352Z,11.24
2023-03-26T08:48:30.239Z,11.25
2023-03-26T08:49:30.182Z,11.28
2023-03-26T08:50:30.182Z,11.29
2023-03-26T08:51:30.185Z,11.28
2023-03-26T08:52:30.312Z,11.25
2023-03-26T08:53:30.191Z,11.24
2023-03-26T08:54:30.123Z,11.19
2023-03-26T08:55:30.132Z,11.20
2023-03-26T08:56:30.247Z,11.20
2023-03-26T08:57:30.099Z,11.21
2023-03-26T08:58:30.084Z,11.21
2023-03-26T08:59:30.074Z,11.20
2023-03-26T09:00:30.104Z,11.17
2023-03-26T09:01:30.107Z,11.19
2023-03-26T09:02:30.147Z,11.20
2023-03-26T09:03:30.179Z,11.25
2023-03-26T09:04:30.115Z,11.28
2023-03-26T09:05:30.223Z,11.32
2023-03-26T09:06:30.000Z,11.31
2023-03-26T09:07:29.948Z,11.32
2023-03-26T09:08:30.395Z,11.34
2023-03-26T09:09:29.936Z,11.35
2023-03-26T09:10:29.972Z,11.38
2023-03-26T09:11:29.905Z,11.35
2023-03-26T09:12:29.948Z,11.35
2023-03-26T09:13:29.904Z,11.34
2023-03-26T09:14:29.951Z,11.36
2023-03-26T09:15:29.962Z,11.36
2023-03-26T09:16:29.989Z,11.36
2023-03-26T09:17:29.969Z,11.39
2023-03-26T09:18:29.956Z,11.41
2023-03-26T09:19:29.852Z,11.38
2023-03-26T09:20:29.871Z,11.39
2023-03-26T09:21:29.826Z,11.38
2023-03-26T09:22:29.990Z,11.35
2023-03-26T09:23:30.764Z,11.35
2023-03-26T09:24:29.821Z,11.32
2023-03-26T09:25:29.757Z,11.32
2023-03-26T09:26:29.856Z,11.31
2023-03-26T09:27:29.733Z,11.28
2023-03-26T09:28:29.749Z,11.24
2023-03-26T09:29:32.271Z,11.21
2023-03-26T09:30:29.794Z,11.19
2023-03-26T09:31:29.813Z,11.17
2023-03-26T09:32:29.724Z,11.14
2023-03-26T09:33:29.691Z,11.13
2023-03-26T09:34:29.680Z,11.13
2023-03-26T09:35:29.677Z,11.13
2023-03-26T09:36:29.650Z,11.10
2023-03-26T09:37:29.661Z,11.07
2023-03-26T09:38:29.723Z,11.09
2023-03-26T09:39:29.718Z,11.09
2023-03-26T09:40:29.604Z,11.09
2023-03-26T09:41:29.744Z,11.10
2023-03-26T09:42:29.665Z,11.11
2023-03-26T09:43:29.573Z,11.11
2023-03-26T09:44:29.636Z,11.13
2023-03-26T09:45:29.578Z,11.09
2023-03-26T09:46:29.561Z,11.07
2023-03-26T09:47:29.503Z,11.07
2023-03-26T09:48:29.513Z,11.06
2023-03-26T09:49:29.499Z,11.02
2023-03-26T09:50:29.496Z,11.01
2023-03-26T09:51:29.464Z,10.99
2023-03-26T09:52:29.462Z,10.95
2023-03-26T09:53:29.462Z,10.96
2023-03-26T09:54:29.442Z,10.95
2023-03-26T09:55:29.415Z,10.94
2023-03-26T09:56:29.436Z,10.94
2023-03-26T09:57:29.441Z,10.91
2023-03-26T09:58:29.397Z,10.86
2023-03-26T09:59:29.440Z,10.88
2023-03-26T10:00:29.399Z,10.86
2023-03-26T10:01:29.415Z,10.88
2023-03-26T10:02:46.337Z,10.84
2023-03-26T10:03:30.380Z,10.84
2023-03-26T10:04:29.358Z,10.83
2023-03-26T10:05:29.342Z,10.88
2023-03-26T10:06:30.298Z,10.88
2023-03-26T10:07:29.278Z,10.88
2023-03-26T10:08:30.898Z,10.88
2023-03-26T10:09:29.250Z,10.89
2023-03-26T10:10:29.308Z,10.91
2023-03-26T10:11:29.224Z,10.92
2023-03-26T10:12:29.283Z,10.94
2023-03-26T10:13:29.199Z,10.91
2023-03-26T10:14:29.249Z,10.88
2023-03-26T10:15:29.329Z,10.84
2023-03-26T10:16:29.224Z,10.84
2023-03-26T10:17:29.215Z,10.88
2023-03-26T10:18:29.990Z,10.84
2023-03-26T10:19:29.232Z,10.86
2023-03-26T10:20:29.159Z,10.86
2023-03-26T10:21:30.093Z,10.86
2023-03-26T10:22:29.202Z,10.88
2023-03-26T10:23:29.117Z,10.89
2023-03-26T10:24:29.378Z,10.91
2023-03-26T10:25:29.241Z,10.92
2023-03-26T10:26:29.079Z,10.94
2023-03-26T10:27:29.157Z,10.94
2023-03-26T10:28:29.122Z,10.96
2023-03-26T10:29:29.017Z,10.96
2023-03-26T10:30:29.368Z,10.99
2023-03-26T10:31:28.999Z,10.98
2023-03-26T10:32:29.045Z,10.98
2023-03-26T10:33:28.987Z,10.96
2023-03-26T10:34:29.669Z,10.96
2023-03-26T10:35:29.052Z,10.95
2023-03-26T10:36:28.993Z,10.92
2023-03-26T10:37:28.937Z,10.94
2023-03-26T10:38:29.067Z,10.91
2023-03-26T10:39:37.653Z,10.88
2023-03-26T10:40:30.094Z,10.84
2023-03-26T10:41:28.891Z,10.80
2023-03-26T10:42:28.943Z,10.78
2023-03-26T10:43:28.880Z,10.76
2023-03-26T10:44:28.938Z,10.74
2023-03-26T10:45:28.885Z,10.71
2023-03-26T10:46:28.931Z,10.71
2023-03-26T10:47:29.078Z,10.68
2023-03-26T10:48:28.875Z,10.65
2023-03-26T10:49:28.804Z,10.66
2023-03-26T10:50:28.818Z,10.63
2023-03-26T10:51:28.826Z,10.62
2023-03-26T10:52:28.780Z,10.60
2023-03-26T10:53:28.745Z,10.59
2023-03-26T10:54:28.780Z,10.55
2023-03-26T10:55:28.782Z,10.53
2023-03-26T10:56:28.822Z,10.47
2023-03-26T10:57:28.757Z,10.47
2023-03-26T10:58:28.725Z,10.46
2023-03-26T10:59:28.784Z,10.44
2023-03-26T11:00:28.694Z,10.44
2023-03-26T11:01:28.780Z,10.42
2023-03-26T11:02:29.637Z,10.42
2023-03-26T11:03:29.603Z,10.40
2023-03-26T11:04:28.734Z,10.39
2023-03-26T11:05:28.838Z,10.39
2023-03-26T11:06:28.642Z,10.34
2023-03-26T11:07:28.653Z,10.32
2023-03-26T11:08:31.929Z,10.28
2023-03-26T11:09:28.586Z,10.30
2023-03-26T11:10:28.603Z,10.26
2023-03-26T11:11:28.569Z,10.26
2023-03-26T11:12:28.711Z,10.32
2023-03-26T11:13:28.611Z,10.33
2023-03-26T11:14:34.891Z,10.32
2023-03-26T11:15:29.594Z,10.32
2023-03-26T11:16:28.537Z,10.32
2023-03-26T11:17:40.917Z,10.32
2023-03-26T11:18:29.525Z,10.32
2023-03-26T11:19:28.486Z,10.30
2023-03-26T11:20:28.503Z,10.30
2023-03-26T11:21:28.483Z,10.25
2023-03-26T11:22:29.005Z,10.25
2023-03-26T11:23:28.446Z,10.25
2023-03-26T11:24:28.426Z,10.25
2023-03-26T11:25:28.402Z,10.24
2023-03-26T11:26:28.450Z,10.25
2023-03-26T11:27:28.388Z,10.26
2023-03-26T11:28:28.470Z,10.25
2023-03-26T11:29:31.143Z,10.26
2023-03-26T11:30:28.384Z,10.30
2023-03-26T11:31:29.194Z,10.25
2023-03-26T11:32:29.861Z,10.22
2023-03-26T11:33:32.636Z,10.24
2023-03-26T11:34:29.800Z,10.25
2023-03-26T11:35:42.525Z,10.24
2023-03-26T11:36:29.364Z,10.24
2023-03-26T11:37:28.338Z,10.25
2023-03-26T11:38:28.455Z,10.24
2023-03-26T11:39:28.583Z,10.24
2023-03-26T11:40:29.036Z,10.22
2023-03-26T11:41:28.458Z,10.21
2023-03-26T11:42:28.328Z,10.18
2023-03-26T11:43:28.343Z,10.14
2023-03-26T11:44:28.215Z,10.07
2023-03-26T11:45:28.217Z,10.06
2023-03-26T11:46:28.240Z,10.01
2023-03-26T11:47:28.254Z,10.01
2023-03-26T11:48:28.207Z,10.01
2023-03-26T11:49:28.152Z,10.04
2023-03-26T11:50:28.167Z,10.06
2023-03-26T11:51:28.161Z,10.07
2023-03-26T11:52:28.207Z,10.07
2023-03-26T11:53:28.104Z,10.07
2023-03-26T11:54:28.099Z,10.04
2023-03-26T11:55:28.069Z,10.06
2023-03-26T11:56:28.098Z,10.07
2023-03-26T11:57:28.092Z,10.07
2023-03-26T11:58:28.052Z,10.07
2023-03-26T11:59:28.029Z,10.09
2023-03-26T12:00:28.054Z,10.10
2023-03-26T12:01:28.011Z,10.09
2023-03-26T12:02:28.045Z,10.09
2023-03-26T12:03:27.989Z,10.09
2023-03-26T12:04:30.025Z,10.09
2023-03-26T12:05:27.962Z,10.07
2023-03-26T12:06:28.044Z,10.07
2023-03-26T12:07:28.053Z,10.07
2023-03-26T12:08:28.053Z,10.07
2023-03-26T12:09:27.951Z,10.09
2023-03-26T12:10:27.935Z,10.09
2023-03-26T12:11:27.885Z,10.10
2023-03-26T12:12:28.002Z,10.12
2023-03-26T12:13:27.846Z,10.10
2023-03-26T12:14:27.867Z,10.12
2023-03-26T12:15:27.859Z,10.10
2023-03-26T12:16:27.964Z,10.10
2023-03-26T12:17:31.473Z,10.10
2023-03-26T12:18:27.861Z,10.09
2023-03-26T12:19:29.303Z,10.07
2023-03-26T12:20:27.818Z,10.04
2023-03-26T12:21:27.780Z,10.01
2023-03-26T12:22:27.811Z,10.01
2023-03-26T12:23:27.822Z,9.99
2023-03-26T12:24:27.766Z,9.97
2023-03-26T12:25:27.756Z,9.96
2023-03-26T12:26:27.715Z,9.96
2023-03-26T12:27:27.762Z,9.94
2023-03-26T12:28:27.701Z,9.96
2023-03-26T12:29:27.709Z,9.94
2023-03-26T12:30:27.702Z,9.97
2023-03-26T12:31:27.674Z,10.00
2023-03-26T12:32:35.731Z,10.00
2023-03-26T12:33:29.687Z,10.01
2023-03-26T12:34:27.659Z,10.00
2023-03-26T12:35:27.763Z,9.99
2023-03-26T12:36:27.630Z,9.96
2023-03-26T12:37:27.639Z,9.94
2023-03-26T12:38:27.625Z,9.93
2023-03-26T12:40:09.854Z,9.91
2023-03-26T12:40:28.544Z,9.88
2023-03-26T12:44:43.120Z,9.88
2023-03-26T12:44:44.118Z,9.86
2023-03-26T12:44:48.895Z,9.88
2023-03-26T12:44:49.409Z,9.86
2023-03-26T12:45:28.556Z,9.89
2023-03-26T12:47:57.023Z,9.91
2023-03-26T12:48:00.199Z,9.89
2023-03-26T12:48:28.567Z,9.89
2023-03-26T12:49:27.973Z,9.88
2023-03-26T12:50:34.455Z,9.88
2023-03-26T12:51:29.222Z,9.86
2023-03-26T12:52:28.876Z,9.86
2023-03-26T12:53:27.451Z,9.88
2023-03-26T12:54:27.392Z,9.85
2023-03-26T12:55:27.440Z,9.83
2023-03-26T12:56:27.406Z,9.83
2023-03-26T12:57:27.514Z,9.82
2023-03-26T12:58:27.359Z,9.81
2023-03-26T12:59:27.374Z,9.81
2023-03-26T13:00:27.333Z,9.79
2023-03-26T13:01:27.428Z,9.78
2023-03-26T13:02:27.413Z,9.78
2023-03-26T13:03:27.400Z,9.79
2023-03-26T13:04:27.292Z,9.76
2023-03-26T13:05:27.338Z,9.78
2023-03-26T13:06:27.309Z,9.76
2023-03-26T13:07:27.330Z,9.79